sensor_id;sensor_type;location;lat;lon;timestamp;temperature;humidity
44894;DHT22;30625;52.206;21.030;2023-12-22T00:01:34;4.70;99.90
44894;DHT22;30625;52.206;21.030;2023-12-22T00:04:01;4.70;99.90
44894;DHT22;30625;52.206;21.030;2023-12-22T00:06:27;4.70;99.90
44894;DHT22;30625;52.206;21.030;2023-12-22T00:08:52;4.80;99.90
44894;DHT22;30625;52.206;21.030;2023-12-22T00:11:18;4.80;99.90
44894;DHT22;30625;52.206;21.030;2023-12-22T00:13:45;4.80;99.90
44894;DHT22;30625;52.206;21.030;2023-12-22T00:16:10;4.80;99.90
44894;DHT22;30625;52.206;21.030;2023-12-22T00:18:40;4.80;99.90
44894;DHT22;30625;52.206;21.030;2023-12-22T00:21:10;4.80;99.90
44894;DHT22;30625;52.206;21.030;2023-12-22T00:23:37;4.80;99.90
44894;DHT22;30625;52.206;21.030;2023-12-22T00:26:05;4.70;99.90
44894;DHT22;30625;52.206;21.030;2023-12-22T00:28:31;4.90;99.90
44894;DHT22;30625;52.206;21.030;2023-12-22T00:31:03;4.70;99.90
44894;DHT22;30625;52.206;21.030;2023-12-22T00:33:31;4.70;99.90
44894;DHT22;30625;52.206;21.030;2023-12-22T00:35:58;4.70;99.90
44894;DHT22;30625;52.206;21.030;2023-12-22T00:38:24;4.70;99.90
44894;DHT22;30625;52.206;21.030;2023-12-22T00:40:49;4.70;99.90
44894;DHT22;30625;52.206;21.030;2023-12-22T00:43:16;4.60;99.90
44894;DHT22;30625;52.206;21.030;2023-12-22T00:45:42;4.70;99.90
44894;DHT22;30625;52.206;21.030;2023-12-22T00:48:08;4.70;99.90
44894;DHT22;30625;52.206;21.030;2023-12-22T00:50:33;4.60;99.90
44894;DHT22;30625;52.206;21.030;2023-12-22T00:52:59;4.90;99.90
44894;DHT22;30625;52.206;21.030;2023-12-22T00:55:26;4.70;99.90
44894;DHT22;30625;52.206;21.030;2023-12-22T00:57:52;4.70;99.90
44894;DHT22;30625;52.206;21.030;2023-12-22T01:00:18;4.80;99.90
44894;DHT22;30625;52.206;21.030;2023-12-22T01:02:47;4.70;99.90
44894;DHT22;30625;52.206;21.030;2023-12-22T01:05:13;4.70;99.90
44894;DHT22;30625;52.206;21.030;2023-12-22T01:07:39;4.60;99.90
44894;DHT22;30625;52.206;21.030;2023-12-22T01:10:06;4.60;99.90
44894;DHT22;30625;52.206;21.030;2023-12-22T01:12:32;4.60;99.90
44894;DHT22;30625;52.206;21.030;2023-12-22T01:14:57;4.60;99.90
44894;DHT22;30625;52.206;21.030;2023-12-22T01:17:23;4.60;99.90
44894;DHT22;30625;52.206;21.030;2023-12-22T01:19:50;4.60;99.90
44894;DHT22;30625;52.206;21.030;2023-12-22T01:22:17;4.60;99.90
44894;DHT22;30625;52.206;21.030;2023-12-22T01:24:43;4.40;99.90
44894;DHT22;30625;52.206;21.030;2023-12-22T01:27:10;4.50;99.90
44894;DHT22;30625;52.206;21.030;2023-12-22T01:29:36;4.60;99.90
44894;DHT22;30625;52.206;21.030;2023-12-22T01:32:02;4.60;99.90
44894;DHT22;30625;52.206;21.030;2023-12-22T01:34:29;4.60;99.90
44894;DHT22;30625;52.206;21.030;2023-12-22T01:36:55;4.60;99.90
44894;DHT22;30625;52.206;21.030;2023-12-22T01:39:20;4.70;99.90
44894;DHT22;30625;52.206;21.030;2023-12-22T01:41:46;4.70;99.90
44894;DHT22;30625;52.206;21.030;2023-12-22T01:44:12;4.70;99.90
44894;DHT22;30625;52.206;21.030;2023-12-22T01:46:38;4.70;99.90
44894;DHT22;30625;52.206;21.030;2023-12-22T01:49:05;4.70;99.90
44894;DHT22;30625;52.206;21.030;2023-12-22T01:51:33;4.80;99.90
44894;DHT22;30625;52.206;21.030;2023-12-22T01:54:00;4.70;99.90
44894;DHT22;30625;52.206;21.030;2023-12-22T01:56:25;4.80;99.90
44894;DHT22;30625;52.206;21.030;2023-12-22T01:58:59;4.80;99.90
44894;DHT22;30625;52.206;21.030;2023-12-22T02:01:28;4.80;99.90
44894;DHT22;30625;52.206;21.030;2023-12-22T02:03:54;4.80;99.90
44894;DHT22;30625;52.206;21.030;2023-12-22T02:06:20;4.70;99.90
44894;DHT22;30625;52.206;21.030;2023-12-22T02:08:48;4.70;99.90
44894;DHT22;30625;52.206;21.030;2023-12-22T02:11:14;4.70;99.90
44894;DHT22;30625;52.206;21.030;2023-12-22T02:13:43;4.70;99.90
44894;DHT22;30625;52.206;21.030;2023-12-22T02:18:55;4.70;99.90
44894;DHT22;30625;52.206;21.030;2023-12-22T02:21:21;4.80;99.90
44894;DHT22;30625;52.206;21.030;2023-12-22T02:23:47;4.80;99.90
44894;DHT22;30625;52.206;21.030;2023-12-22T02:26:21;4.80;99.90
44894;DHT22;30625;52.206;21.030;2023-12-22T02:28:50;4.90;99.90
44894;DHT22;30625;52.206;21.030;2023-12-22T02:31:18;4.90;99.90
44894;DHT22;30625;52.206;21.030;2023-12-22T02:33:49;4.90;99.90
44894;DHT22;30625;52.206;21.030;2023-12-22T02:36:20;5.00;99.90
44894;DHT22;30625;52.206;21.030;2023-12-22T02:38:49;4.90;99.90
44894;DHT22;30625;52.206;21.030;2023-12-22T02:41:16;5.00;99.90
44894;DHT22;30625;52.206;21.030;2023-12-22T02:43:42;5.00;99.90
44894;DHT22;30625;52.206;21.030;2023-12-22T02:46:15;5.00;99.90
44894;DHT22;30625;52.206;21.030;2023-12-22T02:48:41;5.00;99.90
44894;DHT22;30625;52.206;21.030;2023-12-22T02:51:07;4.90;99.90
44894;DHT22;30625;52.206;21.030;2023-12-22T02:53:33;4.90;99.90
44894;DHT22;30625;52.206;21.030;2023-12-22T02:56:00;5.00;99.90
44894;DHT22;30625;52.206;21.030;2023-12-22T02:58:26;4.90;99.90
44894;DHT22;30625;52.206;21.030;2023-12-22T03:00:52;5.00;99.90
44894;DHT22;30625;52.206;21.030;2023-12-22T03:03:18;4.90;99.90
44894;DHT22;30625;52.206;21.030;2023-12-22T03:05:43;5.00;99.90
44894;DHT22;30625;52.206;21.030;2023-12-22T03:08:09;5.00;99.90
44894;DHT22;30625;52.206;21.030;2023-12-22T03:10:36;5.00;99.90
44894;DHT22;30625;52.206;21.030;2023-12-22T03:13:01;5.00;99.90
44894;DHT22;30625;52.206;21.030;2023-12-22T03:15:27;5.00;99.90
44894;DHT22;30625;52.206;21.030;2023-12-22T03:17:53;5.00;99.90
44894;DHT22;30625;52.206;21.030;2023-12-22T03:20:19;5.00;99.90
44894;DHT22;30625;52.206;21.030;2023-12-22T03:22:44;5.00;99.90
44894;DHT22;30625;52.206;21.030;2023-12-22T03:25:10;4.90;99.90
44894;DHT22;30625;52.206;21.030;2023-12-22T03:27:36;4.80;99.90
44894;DHT22;30625;52.206;21.030;2023-12-22T03:30:03;4.80;99.90
44894;DHT22;30625;52.206;21.030;2023-12-22T03:32:30;4.80;99.90
44894;DHT22;30625;52.206;21.030;2023-12-22T03:34:56;4.70;99.90
44894;DHT22;30625;52.206;21.030;2023-12-22T03:37:21;4.70;99.90
44894;DHT22;30625;52.206;21.030;2023-12-22T03:39:47;4.60;99.90
44894;DHT22;30625;52.206;21.030;2023-12-22T03:42:12;4.60;99.90
44894;DHT22;30625;52.206;21.030;2023-12-22T03:44:39;4.60;99.90
44894;DHT22;30625;52.206;21.030;2023-12-22T03:47:05;4.60;99.90
44894;DHT22;30625;52.206;21.030;2023-12-22T03:49:30;4.60;99.90
44894;DHT22;30625;52.206;21.030;2023-12-22T03:51:56;4.60;99.90
44894;DHT22;30625;52.206;21.030;2023-12-22T03:54:22;4.60;99.90
44894;DHT22;30625;52.206;21.030;2023-12-22T03:56:49;4.50;99.90
44894;DHT22;30625;52.206;21.030;2023-12-22T03:59:14;4.60;99.90
44894;DHT22;30625;52.206;21.030;2023-12-22T04:01:43;4.70;99.90
44894;DHT22;30625;52.206;21.030;2023-12-22T04:04:09;4.60;99.90
44894;DHT22;30625;52.206;21.030;2023-12-22T04:11:40;4.60;99.90
44894;DHT22;30625;52.206;21.030;2023-12-22T04:14:07;4.60;99.90
44894;DHT22;30625;52.206;21.030;2023-12-22T04:16:37;4.50;99.90
44894;DHT22;30625;52.206;21.030;2023-12-22T04:19:04;4.60;99.90
44894;DHT22;30625;52.206;21.030;2023-12-22T04:21:30;4.60;99.90
44894;DHT22;30625;52.206;21.030;2023-12-22T04:23:57;4.60;99.90
44894;DHT22;30625;52.206;21.030;2023-12-22T04:26:23;4.60;99.90
44894;DHT22;30625;52.206;21.030;2023-12-22T04:28:49;4.60;99.90
44894;DHT22;30625;52.206;21.030;2023-12-22T04:31:14;4.60;99.90
44894;DHT22;30625;52.206;21.030;2023-12-22T04:33:40;4.60;99.90
44894;DHT22;30625;52.206;21.030;2023-12-22T04:36:06;4.60;99.90
44894;DHT22;30625;52.206;21.030;2023-12-22T04:38:32;4.60;99.90
44894;DHT22;30625;52.206;21.030;2023-12-22T04:40:58;4.60;99.90
44894;DHT22;30625;52.206;21.030;2023-12-22T04:43:27;4.60;99.90
44894;DHT22;30625;52.206;21.030;2023-12-22T04:45:55;4.50;99.90
44894;DHT22;30625;52.206;21.030;2023-12-22T04:48:24;4.60;99.90
44894;DHT22;30625;52.206;21.030;2023-12-22T04:50:50;4.60;99.90
44894;DHT22;30625;52.206;21.030;2023-12-22T04:53:17;4.60;99.90
44894;DHT22;30625;52.206;21.030;2023-12-22T04:55:42;4.60;99.90
44894;DHT22;30625;52.206;21.030;2023-12-22T04:58:08;4.60;99.90
44894;DHT22;30625;52.206;21.030;2023-12-22T05:00:34;4.50;99.90
44894;DHT22;30625;52.206;21.030;2023-12-22T05:03:00;4.50;99.90
44894;DHT22;30625;52.206;21.030;2023-12-22T05:05:26;4.40;99.90
44894;DHT22;30625;52.206;21.030;2023-12-22T05:07:52;4.40;99.90
44894;DHT22;30625;52.206;21.030;2023-12-22T05:10:18;4.40;99.90
44894;DHT22;30625;52.206;21.030;2023-12-22T05:12:44;4.40;99.90
44894;DHT22;30625;52.206;21.030;2023-12-22T05:15:11;4.20;99.90
44894;DHT22;30625;52.206;21.030;2023-12-22T05:17:37;4.20;99.90
44894;DHT22;30625;52.206;21.030;2023-12-22T05:20:03;4.20;99.90
44894;DHT22;30625;52.206;21.030;2023-12-22T05:22:29;4.20;99.90
44894;DHT22;30625;52.206;21.030;2023-12-22T05:24:58;4.20;99.90
44894;DHT22;30625;52.206;21.030;2023-12-22T05:27:27;4.20;99.90
44894;DHT22;30625;52.206;21.030;2023-12-22T05:35:03;4.20;99.90
44894;DHT22;30625;52.206;21.030;2023-12-22T05:37:35;4.30;99.90
44894;DHT22;30625;52.206;21.030;2023-12-22T05:40:06;4.20;99.90
44894;DHT22;30625;52.206;21.030;2023-12-22T05:42:33;4.20;99.90
44894;DHT22;30625;52.206;21.030;2023-12-22T05:45:00;4.20;99.90
44894;DHT22;30625;52.206;21.030;2023-12-22T05:47:26;4.20;99.90
44894;DHT22;30625;52.206;21.030;2023-12-22T05:49:52;4.10;99.90
44894;DHT22;30625;52.206;21.030;2023-12-22T05:52:18;4.40;99.90
44894;DHT22;30625;52.206;21.030;2023-12-22T05:54:44;4.20;99.90
44894;DHT22;30625;52.206;21.030;2023-12-22T05:57:09;4.10;99.90
44894;DHT22;30625;52.206;21.030;2023-12-22T05:59:35;4.10;99.90
44894;DHT22;30625;52.206;21.030;2023-12-22T06:02:01;4.00;99.90
44894;DHT22;30625;52.206;21.030;2023-12-22T06:04:28;4.10;99.90
44894;DHT22;30625;52.206;21.030;2023-12-22T06:06:53;4.00;99.90
44894;DHT22;30625;52.206;21.030;2023-12-22T06:09:20;4.10;99.90
44894;DHT22;30625;52.206;21.030;2023-12-22T06:11:48;4.00;99.90
44894;DHT22;30625;52.206;21.030;2023-12-22T06:14:15;4.00;99.90
44894;DHT22;30625;52.206;21.030;2023-12-22T06:16:41;4.00;99.90
44894;DHT22;30625;52.206;21.030;2023-12-22T06:19:07;4.00;99.90
44894;DHT22;30625;52.206;21.030;2023-12-22T06:21:36;4.10;99.90
44894;DHT22;30625;52.206;21.030;2023-12-22T06:24:03;4.10;99.90
44894;DHT22;30625;52.206;21.030;2023-12-22T06:26:31;4.10;99.90
44894;DHT22;30625;52.206;21.030;2023-12-22T06:28:57;4.20;99.90
44894;DHT22;30625;52.206;21.030;2023-12-22T06:31:23;4.30;99.90
44894;DHT22;30625;52.206;21.030;2023-12-22T06:33:51;4.30;99.90
44894;DHT22;30625;52.206;21.030;2023-12-22T06:36:22;4.30;99.90
44894;DHT22;30625;52.206;21.030;2023-12-22T06:38:49;4.30;99.90
44894;DHT22;30625;52.206;21.030;2023-12-22T06:43:51;4.40;99.90
44894;DHT22;30625;52.206;21.030;2023-12-22T06:46:22;4.40;99.90
44894;DHT22;30625;52.206;21.030;2023-12-22T06:48:48;4.50;99.90
44894;DHT22;30625;52.206;21.030;2023-12-22T06:51:24;4.50;99.90
44894;DHT22;30625;52.206;21.030;2023-12-22T06:53:50;4.50;99.90
44894;DHT22;30625;52.206;21.030;2023-12-22T06:56:20;4.60;99.90
44894;DHT22;30625;52.206;21.030;2023-12-22T06:58:51;4.60;99.90
44894;DHT22;30625;52.206;21.030;2023-12-22T07:01:34;4.50;99.90
44894;DHT22;30625;52.206;21.030;2023-12-22T07:04:05;4.60;99.90
44894;DHT22;30625;52.206;21.030;2023-12-22T07:06:35;4.60;99.90
44894;DHT22;30625;52.206;21.030;2023-12-22T07:11:50;4.60;99.90
44894;DHT22;30625;52.206;21.030;2023-12-22T07:14:17;4.50;99.90
44894;DHT22;30625;52.206;21.030;2023-12-22T07:16:43;4.50;99.90
44894;DHT22;30625;52.206;21.030;2023-12-22T07:19:09;4.50;99.90
44894;DHT22;30625;52.206;21.030;2023-12-22T07:21:35;4.50;99.90
44894;DHT22;30625;52.206;21.030;2023-12-22T07:24:04;4.50;99.90
44894;DHT22;30625;52.206;21.030;2023-12-22T07:26:29;4.50;99.90
44894;DHT22;30625;52.206;21.030;2023-12-22T07:28:56;4.50;99.90
44894;DHT22;30625;52.206;21.030;2023-12-22T07:31:22;4.50;99.90
44894;DHT22;30625;52.206;21.030;2023-12-22T07:33:49;4.50;99.90
44894;DHT22;30625;52.206;21.030;2023-12-22T07:36:15;4.60;99.90
44894;DHT22;30625;52.206;21.030;2023-12-22T07:38:41;4.50;99.90
44894;DHT22;30625;52.206;21.030;2023-12-22T07:41:07;4.50;99.90
44894;DHT22;30625;52.206;21.030;2023-12-22T07:43:33;4.40;99.90
44894;DHT22;30625;52.206;21.030;2023-12-22T07:46:01;4.50;99.90
44894;DHT22;30625;52.206;21.030;2023-12-22T07:48:27;4.50;99.90
44894;DHT22;30625;52.206;21.030;2023-12-22T07:50:53;4.40;99.90
44894;DHT22;30625;52.206;21.030;2023-12-22T07:53:19;4.40;99.90
44894;DHT22;30625;52.206;21.030;2023-12-22T07:55:46;4.40;99.90
44894;DHT22;30625;52.206;21.030;2023-12-22T07:58:12;4.40;99.90
44894;DHT22;30625;52.206;21.030;2023-12-22T08:00:38;4.30;99.90
44894;DHT22;30625;52.206;21.030;2023-12-22T08:03:05;4.40;99.90
44894;DHT22;30625;52.206;21.030;2023-12-22T08:05:32;4.20;99.90
44894;DHT22;30625;52.206;21.030;2023-12-22T08:08:00;4.20;99.90
44894;DHT22;30625;52.206;21.030;2023-12-22T08:10:27;4.20;99.90
44894;DHT22;30625;52.206;21.030;2023-12-22T08:12:53;4.20;99.90
44894;DHT22;30625;52.206;21.030;2023-12-22T08:15:25;4.30;99.90
44894;DHT22;30625;52.206;21.030;2023-12-22T08:17:51;4.30;99.90
44894;DHT22;30625;52.206;21.030;2023-12-22T08:20:21;4.30;99.90
44894;DHT22;30625;52.206;21.030;2023-12-22T08:22:48;4.30;99.90
44894;DHT22;30625;52.206;21.030;2023-12-22T08:25:15;4.30;99.90
44894;DHT22;30625;52.206;21.030;2023-12-22T08:27:47;4.30;99.90
44894;DHT22;30625;52.206;21.030;2023-12-22T08:30:14;4.30;99.90
44894;DHT22;30625;52.206;21.030;2023-12-22T08:32:40;4.30;99.90
44894;DHT22;30625;52.206;21.030;2023-12-22T08:35:11;4.30;99.90
44894;DHT22;30625;52.206;21.030;2023-12-22T08:38:01;4.20;99.90
44894;DHT22;30625;52.206;21.030;2023-12-22T08:40:28;4.20;99.90
44894;DHT22;30625;52.206;21.030;2023-12-22T08:42:57;4.20;99.90
44894;DHT22;30625;52.206;21.030;2023-12-22T08:45:28;4.20;99.90
44894;DHT22;30625;52.206;21.030;2023-12-22T08:47:55;4.20;99.90
44894;DHT22;30625;52.206;21.030;2023-12-22T08:50:24;4.30;99.90
44894;DHT22;30625;52.206;21.030;2023-12-22T08:52:51;4.30;99.90
44894;DHT22;30625;52.206;21.030;2023-12-22T08:55:17;4.20;99.90
44894;DHT22;30625;52.206;21.030;2023-12-22T08:57:44;4.20;99.90
44894;DHT22;30625;52.206;21.030;2023-12-22T09:00:10;4.20;99.90
44894;DHT22;30625;52.206;21.030;2023-12-22T09:02:36;4.20;99.90
44894;DHT22;30625;52.206;21.030;2023-12-22T09:05:02;4.30;99.90
44894;DHT22;30625;52.206;21.030;2023-12-22T09:07:28;4.30;99.90
44894;DHT22;30625;52.206;21.030;2023-12-22T09:09:54;4.30;99.90
44894;DHT22;30625;52.206;21.030;2023-12-22T09:12:20;4.30;99.90
44894;DHT22;30625;52.206;21.030;2023-12-22T09:14:46;4.40;99.90
44894;DHT22;30625;52.206;21.030;2023-12-22T09:17:11;4.40;99.90
44894;DHT22;30625;52.206;21.030;2023-12-22T09:19:37;4.50;99.90
44894;DHT22;30625;52.206;21.030;2023-12-22T09:22:04;4.70;99.90
44894;DHT22;30625;52.206;21.030;2023-12-22T09:24:30;4.60;99.90
44894;DHT22;30625;52.206;21.030;2023-12-22T09:26:58;4.60;99.90
44894;DHT22;30625;52.206;21.030;2023-12-22T09:29:31;4.60;99.90
44894;DHT22;30625;52.206;21.030;2023-12-22T09:32:03;4.70;99.90
44894;DHT22;30625;52.206;21.030;2023-12-22T09:34:29;4.60;99.90
44894;DHT22;30625;52.206;21.030;2023-12-22T09:36:55;4.70;99.90
44894;DHT22;30625;52.206;21.030;2023-12-22T09:39:22;4.70;99.90
44894;DHT22;30625;52.206;21.030;2023-12-22T09:41:49;4.80;99.90
44894;DHT22;30625;52.206;21.030;2023-12-22T09:44:19;4.90;99.90
44894;DHT22;30625;52.206;21.030;2023-12-22T09:46:49;4.90;99.70
44894;DHT22;30625;52.206;21.030;2023-12-22T09:49:19;5.00;99.40
44894;DHT22;30625;52.206;21.030;2023-12-22T09:51:47;5.00;99.90
44894;DHT22;30625;52.206;21.030;2023-12-22T09:54:16;5.20;99.60
44894;DHT22;30625;52.206;21.030;2023-12-22T09:56:43;5.20;99.50
44894;DHT22;30625;52.206;21.030;2023-12-22T09:59:12;5.10;99.50
44894;DHT22;30625;52.206;21.030;2023-12-22T10:01:45;5.10;99.20
44894;DHT22;30625;52.206;21.030;2023-12-22T10:04:16;5.10;99.60
44894;DHT22;30625;52.206;21.030;2023-12-22T10:06:46;5.10;99.00
44894;DHT22;30625;52.206;21.030;2023-12-22T10:09:13;5.10;99.90
44894;DHT22;30625;52.206;21.030;2023-12-22T10:11:47;5.10;99.40
44894;DHT22;30625;52.206;21.030;2023-12-22T10:14:15;5.00;99.50
44894;DHT22;30625;52.206;21.030;2023-12-22T10:16:49;4.90;99.90
44894;DHT22;30625;52.206;21.030;2023-12-22T10:19:15;4.80;99.90
44894;DHT22;30625;52.206;21.030;2023-12-22T10:21:41;4.30;99.90
44894;DHT22;30625;52.206;21.030;2023-12-22T10:24:07;3.70;99.90
44894;DHT22;30625;52.206;21.030;2023-12-22T10:26:33;3.30;99.90
44894;DHT22;30625;52.206;21.030;2023-12-22T10:28:59;2.80;99.90
44894;DHT22;30625;52.206;21.030;2023-12-22T10:31:24;2.60;99.90
44894;DHT22;30625;52.206;21.030;2023-12-22T10:33:51;2.20;99.90
44894;DHT22;30625;52.206;21.030;2023-12-22T10:36:17;2.00;99.90
44894;DHT22;30625;52.206;21.030;2023-12-22T10:38:43;1.80;99.90
44894;DHT22;30625;52.206;21.030;2023-12-22T10:41:10;1.60;99.90
44894;DHT22;30625;52.206;21.030;2023-12-22T10:43:40;1.80;99.90
44894;DHT22;30625;52.206;21.030;2023-12-22T10:46:09;1.30;99.90
44894;DHT22;30625;52.206;21.030;2023-12-22T10:48:36;1.20;99.90
44894;DHT22;30625;52.206;21.030;2023-12-22T10:51:02;1.20;99.90
44894;DHT22;30625;52.206;21.030;2023-12-22T10:53:28;1.10;99.90
44894;DHT22;30625;52.206;21.030;2023-12-22T10:55:54;1.10;99.90
44894;DHT22;30625;52.206;21.030;2023-12-22T10:58:20;1.10;99.90
44894;DHT22;30625;52.206;21.030;2023-12-22T11:00:47;1.30;99.90
44894;DHT22;30625;52.206;21.030;2023-12-22T11:03:17;1.10;99.90
44894;DHT22;30625;52.206;21.030;2023-12-22T11:05:51;1.30;99.90
44894;DHT22;30625;52.206;21.030;2023-12-22T11:08:18;1.30;99.90
44894;DHT22;30625;52.206;21.030;2023-12-22T11:10:50;1.30;99.90
44894;DHT22;30625;52.206;21.030;2023-12-22T11:13:22;1.40;99.90
44894;DHT22;30625;52.206;21.030;2023-12-22T11:15:49;1.60;99.90
44894;DHT22;30625;52.206;21.030;2023-12-22T11:18:19;1.40;99.90
44894;DHT22;30625;52.206;21.030;2023-12-22T11:20:46;1.40;99.90
44894;DHT22;30625;52.206;21.030;2023-12-22T11:23:14;1.50;99.90
44894;DHT22;30625;52.206;21.030;2023-12-22T11:25:41;1.40;99.90
44894;DHT22;30625;52.206;21.030;2023-12-22T11:28:09;1.40;99.90
44894;DHT22;30625;52.206;21.030;2023-12-22T11:30:38;1.50;99.90
44894;DHT22;30625;52.206;21.030;2023-12-22T11:33:05;1.50;99.90
44894;DHT22;30625;52.206;21.030;2023-12-22T11:35:31;1.70;99.90
44894;DHT22;30625;52.206;21.030;2023-12-22T11:38:00;1.60;99.90
44894;DHT22;30625;52.206;21.030;2023-12-22T11:40:29;1.60;99.90
44894;DHT22;30625;52.206;21.030;2023-12-22T11:42:56;1.70;99.90
44894;DHT22;30625;52.206;21.030;2023-12-22T11:45:22;1.70;99.90
44894;DHT22;30625;52.206;21.030;2023-12-22T11:47:51;1.70;99.90
44894;DHT22;30625;52.206;21.030;2023-12-22T11:50:28;1.80;99.90
44894;DHT22;30625;52.206;21.030;2023-12-22T11:52:55;1.80;99.90
44894;DHT22;30625;52.206;21.030;2023-12-22T11:55:59;1.90;99.90
44894;DHT22;30625;52.206;21.030;2023-12-22T11:58:41;2.00;99.90
44894;DHT22;30625;52.206;21.030;2023-12-22T12:01:14;2.00;99.90
44894;DHT22;30625;52.206;21.030;2023-12-22T12:03:49;2.10;99.90
44894;DHT22;30625;52.206;21.030;2023-12-22T12:11:23;2.20;99.90
44894;DHT22;30625;52.206;21.030;2023-12-22T12:13:50;2.30;99.90
44894;DHT22;30625;52.206;21.030;2023-12-22T12:16:20;2.30;99.90
44894;DHT22;30625;52.206;21.030;2023-12-22T12:18:50;2.30;99.90
44894;DHT22;30625;52.206;21.030;2023-12-22T12:21:18;2.40;99.90
44894;DHT22;30625;52.206;21.030;2023-12-22T12:23:43;2.40;99.90
44894;DHT22;30625;52.206;21.030;2023-12-22T12:26:11;2.40;99.90
44894;DHT22;30625;52.206;21.030;2023-12-22T12:28:37;2.40;99.90
44894;DHT22;30625;52.206;21.030;2023-12-22T12:31:07;2.70;99.90
44894;DHT22;30625;52.206;21.030;2023-12-22T12:33:35;2.50;99.90
44894;DHT22;30625;52.206;21.030;2023-12-22T12:36:02;2.50;99.90
44894;DHT22;30625;52.206;21.030;2023-12-22T12:38:48;2.40;99.90
44894;DHT22;30625;52.206;21.030;2023-12-22T12:41:18;2.40;99.90
44894;DHT22;30625;52.206;21.030;2023-12-22T12:43:50;2.50;99.90
44894;DHT22;30625;52.206;21.030;2023-12-22T12:46:16;2.60;99.90
44894;DHT22;30625;52.206;21.030;2023-12-22T12:48:43;2.40;99.90
44894;DHT22;30625;52.206;21.030;2023-12-22T12:51:10;2.30;99.90
44894;DHT22;30625;52.206;21.030;2023-12-22T12:53:36;2.30;99.90
44894;DHT22;30625;52.206;21.030;2023-12-22T12:56:03;2.10;99.90
44894;DHT22;30625;52.206;21.030;2023-12-22T12:58:32;2.10;99.90
44894;DHT22;30625;52.206;21.030;2023-12-22T13:01:08;2.10;99.90
44894;DHT22;30625;52.206;21.030;2023-12-22T13:03:54;2.10;99.90
44894;DHT22;30625;52.206;21.030;2023-12-22T13:06:20;2.10;99.90
44894;DHT22;30625;52.206;21.030;2023-12-22T13:08:50;2.10;99.90
44894;DHT22;30625;52.206;21.030;2023-12-22T13:11:27;2.00;99.90
44894;DHT22;30625;52.206;21.030;2023-12-22T13:13:54;2.00;99.90
44894;DHT22;30625;52.206;21.030;2023-12-22T13:16:20;2.00;99.90
44894;DHT22;30625;52.206;21.030;2023-12-22T13:18:48;2.10;99.90
44894;DHT22;30625;52.206;21.030;2023-12-22T13:21:15;2.00;99.90
44894;DHT22;30625;52.206;21.030;2023-12-22T13:23:41;2.00;99.90
44894;DHT22;30625;52.206;21.030;2023-12-22T13:26:20;2.00;99.90
44894;DHT22;30625;52.206;21.030;2023-12-22T13:28:47;2.10;99.90
44894;DHT22;30625;52.206;21.030;2023-12-22T13:31:16;2.10;99.90
44894;DHT22;30625;52.206;21.030;2023-12-22T13:33:44;2.10;99.90
44894;DHT22;30625;52.206;21.030;2023-12-22T13:36:10;2.10;99.90
44894;DHT22;30625;52.206;21.030;2023-12-22T13:38:36;2.10;99.90
44894;DHT22;30625;52.206;21.030;2023-12-22T13:41:02;2.10;99.90
44894;DHT22;30625;52.206;21.030;2023-12-22T13:43:29;2.10;99.90
44894;DHT22;30625;52.206;21.030;2023-12-22T13:45:55;2.10;99.90
44894;DHT22;30625;52.206;21.030;2023-12-22T13:48:21;2.10;99.90
44894;DHT22;30625;52.206;21.030;2023-12-22T13:50:57;2.10;99.90
44894;DHT22;30625;52.206;21.030;2023-12-22T13:53:23;2.10;99.90
44894;DHT22;30625;52.206;21.030;2023-12-22T13:55:55;2.10;99.90
44894;DHT22;30625;52.206;21.030;2023-12-22T13:58:21;2.20;99.90
44894;DHT22;30625;52.206;21.030;2023-12-22T14:00:48;2.10;99.90
44894;DHT22;30625;52.206;21.030;2023-12-22T14:03:14;2.10;99.90
44894;DHT22;30625;52.206;21.030;2023-12-22T14:05:52;2.10;99.90
44894;DHT22;30625;52.206;21.030;2023-12-22T14:08:18;2.00;99.90
44894;DHT22;30625;52.206;21.030;2023-12-22T14:10:48;2.00;99.90
44894;DHT22;30625;52.206;21.030;2023-12-22T14:13:14;2.00;99.90
44894;DHT22;30625;52.206;21.030;2023-12-22T14:15:44;2.00;99.90
44894;DHT22;30625;52.206;21.030;2023-12-22T14:18:10;2.00;99.90
44894;DHT22;30625;52.206;21.030;2023-12-22T14:20:38;1.90;99.90
44894;DHT22;30625;52.206;21.030;2023-12-22T14:23:25;2.00;99.90
44894;DHT22;30625;52.206;21.030;2023-12-22T14:25:53;2.00;99.90
44894;DHT22;30625;52.206;21.030;2023-12-22T14:28:20;1.90;99.90
44894;DHT22;30625;52.206;21.030;2023-12-22T14:30:47;2.00;99.90
44894;DHT22;30625;52.206;21.030;2023-12-22T14:33:13;1.90;99.90
44894;DHT22;30625;52.206;21.030;2023-12-22T14:35:39;1.90;99.90
44894;DHT22;30625;52.206;21.030;2023-12-22T14:38:05;1.90;99.90
44894;DHT22;30625;52.206;21.030;2023-12-22T14:40:31;1.80;99.90
44894;DHT22;30625;52.206;21.030;2023-12-22T14:43:04;1.80;99.90
44894;DHT22;30625;52.206;21.030;2023-12-22T14:45:35;1.80;99.90
44894;DHT22;30625;52.206;21.030;2023-12-22T14:48:02;1.70;99.90
44894;DHT22;30625;52.206;21.030;2023-12-22T14:50:29;1.70;99.90
44894;DHT22;30625;52.206;21.030;2023-12-22T14:53:01;1.80;99.90
44894;DHT22;30625;52.206;21.030;2023-12-22T14:55:32;1.80;99.90
44894;DHT22;30625;52.206;21.030;2023-12-22T14:58:22;1.80;99.90
44894;DHT22;30625;52.206;21.030;2023-12-22T15:00:57;1.80;99.90
44894;DHT22;30625;52.206;21.030;2023-12-22T15:03:24;1.80;99.90
44894;DHT22;30625;52.206;21.030;2023-12-22T15:05:50;1.80;99.90
44894;DHT22;30625;52.206;21.030;2023-12-22T15:08:22;1.80;99.90
44894;DHT22;30625;52.206;21.030;2023-12-22T15:11:15;1.80;99.90
44894;DHT22;30625;52.206;21.030;2023-12-22T15:13:45;1.90;99.90
44894;DHT22;30625;52.206;21.030;2023-12-22T15:16:12;1.90;99.90
44894;DHT22;30625;52.206;21.030;2023-12-22T15:18:44;1.90;99.90
44894;DHT22;30625;52.206;21.030;2023-12-22T15:21:23;1.90;99.90
44894;DHT22;30625;52.206;21.030;2023-12-22T15:23:50;1.90;99.90
44894;DHT22;30625;52.206;21.030;2023-12-22T15:26:24;1.90;99.90
44894;DHT22;30625;52.206;21.030;2023-12-22T15:28:55;1.90;99.90
44894;DHT22;30625;52.206;21.030;2023-12-22T15:31:21;1.90;99.90
44894;DHT22;30625;52.206;21.030;2023-12-22T15:33:47;1.90;99.90
44894;DHT22;30625;52.206;21.030;2023-12-22T15:36:19;1.80;99.90
44894;DHT22;30625;52.206;21.030;2023-12-22T15:38:45;1.80;99.90
44894;DHT22;30625;52.206;21.030;2023-12-22T15:41:11;1.80;99.90
44894;DHT22;30625;52.206;21.030;2023-12-22T15:43:37;1.80;99.90
44894;DHT22;30625;52.206;21.030;2023-12-22T15:46:07;1.90;99.90
44894;DHT22;30625;52.206;21.030;2023-12-22T15:48:34;1.80;99.90
44894;DHT22;30625;52.206;21.030;2023-12-22T15:51:11;1.80;99.90
44894;DHT22;30625;52.206;21.030;2023-12-22T15:53:38;1.80;99.90
44894;DHT22;30625;52.206;21.030;2023-12-22T15:56:05;1.80;99.90
44894;DHT22;30625;52.206;21.030;2023-12-22T15:58:32;1.80;99.90